Decoded Metar for KARA (LOUISIANA in LA, USA) (IATA:ARA) | Meteo·Mobile Aviation Weather
aviador You're here:

KARA Decoded Metar

LOUISIANA in LA, USA
Report Time2018-10-22 13:53:00
UTC Time2018-10-22 14:24:51
Flight Rules vfr VFR
Wind040° at 08 kt
W.Decomp.*RWY 34: 4.4 kt HW 6.7 kt RCW
W.Rank040° ranks 13
Current wind is above 040° avg. (7.3)
Visibility9999 m
Phenomena:N/A
Clouds:Overcast 080 Hf
Expected CloudBase > 2,400 ft AGL from Temp-Dew spread
Ceiling8,000 ft
Temp13°C (ISA -2)
Dew Point07°C (67% RH)
AAT9.4°C
QNH1023 hPa
Density Alt-367 ft
Elevation59 ft
Report Wrong Elevation
Raw Report
KARA 221353Z 04008KT 10SM OVC080 13/07 A3020 RMK AO2 SLP225
T01330072=

Extra information for KARA:More info

Metar Taf Metar & Taf Last 4 Metars F.Rules Stats Wind Profile Meteogram Temp Stats Airport Information Weather charts Add Link Nearby VenuesMetar ALERT Operation Metar Decoded Social comments

AIRNAV info for KARA